Flight Track Log - Related Links

Times and Time Zones

All times are in EST time to prevent confusion due to time zone crossing. See the N1926Y flight status page for this flight to view local times or setup timezone preferences in your user account.

Time Position Orientation Groundspeed Altitude Reporting Facility
EST Latitude Longitude Course Direction KTS MPH feet Rate Location/Type
Fri 02:41:26 PM 42.1589 -73.4261 208° Southwest 99 114 3,200  Level Boston Center
Fri 02:42:21 PM 42.1344 -73.4439 208° Southwest 110 127 3,700 606 Climbing Boston Center
Fri 02:43:15 PM 42.1125 -73.4569 204° Southwest 100 115 4,300 636 Climbing Boston Center
Fri 02:43:27 PM 42.1056 -73.4603 200° South 97 112 4,400 197 Climbing Boston Center
Fri 02:44:16 PM 42.0864 -73.4750 210° Southwest 102 117 4,500 54 Climbing Boston Center
Fri 02:45:19 PM 42.0550 -73.4956 206° Southwest 120 138 4,500  Level Boston Center
Fri 02:46:19 PM 42.0208 -73.5197 208° Southwest 129 148 4,500  Level Boston Center
Fri 02:47:20 PM 41.9892 -73.5411 207° Southwest 129 148 4,500  Level Boston Center
Fri 02:48:23 PM 41.9586 -73.5614 206° Southwest 123 142 4,500  Level Boston Center
Fri 02:49:24 PM 41.9244 -73.5850 207° Southwest 127 146 4,500  Level Boston Center
Fri 02:50:24 PM 41.8939 -73.6061 207° Southwest 125 144 4,500  Level Boston Center
Fri 02:51:25 PM 41.8625 -73.6272 207° Southwest 127 146 4,500  Level Boston Center
Fri 02:52:28 PM 41.8308 -73.6475 206° Southwest 126 145 4,500  Level Boston Center
Fri 02:53:29 PM 41.7972 -73.6706 207° Southwest 128 147 4,500  Level Boston Center
Fri 02:54:31 PM 41.7664 -73.6914 207° Southwest 123 142 4,500  Level Boston Center
Fri 02:55:30 PM 41.7344 -73.7122 206° Southwest 128 147 4,500  Level Boston Center
Fri 02:56:33 PM 41.7025 -73.7342 207° Southwest 128 147 4,500  Level Boston Center
Fri 02:57:34 PM 41.6681 -73.7572 207° Southwest 129 148 4,500  Level Boston Center
Fri 02:58:34 PM 41.6364 -73.7786 207° Southwest 129 148 4,500  Level Boston Center
Fri 02:59:26 PM 41.6167 -73.8000 219° Southwest 132 152 4,500  Level New York TRACON
Fri 03:00:32 PM 41.5667 -73.8167 194° South 131 151 4,500  Level New York TRACON
Fri 03:01:26 PM 41.5500 -73.8333 217° Southwest 131 151 4,500  Level New York TRACON
Fri 03:02:32 PM 41.5000 -73.8667 207° Southwest 134 154 4,500  Level New York TRACON
Fri 03:03:26 PM 41.4833 -73.8833 217° Southwest 138 159 4,500  Level New York TRACON
Fri 03:04:27 PM 41.4500 -73.9000 201° Southwest 132 152 4,500  Level New York TRACON
Fri 03:05:27 PM 41.4167 -73.9333 217° Southwest 135 155 4,500  Level New York TRACON
Fri 03:06:26 PM 41.3833 -73.9500 201° Southwest 132 152 4,500  Level New York TRACON
Fri 03:07:26 PM 41.3500 -73.9667 201° Southwest 134 154 4,500 -320 Level New York TRACON
Fri 03:09:52 PM 41.2681 -74.0231 207° Southwest 131 151 3,400 -466 Descending Boston Center
Fri 03:10:52 PM 41.2361 -74.0453 208° Southwest 130 150 2,900 -446 Descending Boston Center
Fri 03:11:53 PM 41.2000 -74.0683 206° Southwest 133 153 2,500 -194 Descending Boston Center
Fri 03:12:56 PM 41.1719 -74.0867 206° Southwest 125 144 2,500  Level Boston Center
Fri 03:13:56 PM 41.1433 -74.1075 209° Southwest 125 144 2,500  Level Boston Center
Fri 03:14:57 PM 41.1019 -74.1181 191° South 130 150 2,500  Level Boston Center
Fri 03:15:58 PM 41.0675 -74.1347 200° South 135 155 2,500 -194 Level Boston Center
Fri 03:17:01 PM 41.0367 -74.1608 213° Southwest 132 152 2,100 -381 Descending Boston Center

Login

Don't have an account? Register now (free) for customized features, flight alerts, and more!